createdAt,value
2023-01-05T00:01:10.783Z,88.25
2023-01-05T00:03:38.209Z,88.00
2023-01-05T00:06:11.288Z,91.75
2023-01-05T00:08:38.579Z,96.25
2023-01-05T00:11:31.285Z,85.25
2023-01-05T00:14:18.612Z,87.00
2023-01-05T00:17:04.408Z,84.75
2023-01-05T00:19:50.778Z,83.50
2023-01-05T00:22:32.203Z,87.25
2023-01-05T00:25:12.258Z,79.00
2023-01-05T00:27:41.702Z,79.50
2023-01-05T00:30:10.824Z,75.00
2023-01-05T00:32:37.575Z,79.25
2023-01-05T00:35:04.978Z,78.00
2023-01-05T00:37:33.571Z,76.50
2023-01-05T00:40:00.231Z,74.50
2023-01-05T00:42:27.876Z,74.25
2023-01-05T00:44:54.562Z,74.50
2023-01-05T00:47:21.206Z,71.25
2023-01-05T00:49:48.513Z,71.50
2023-01-05T00:52:15.341Z,71.50
2023-01-05T00:54:42.629Z,71.50
2023-01-05T00:57:13.339Z,68.50
2023-01-05T00:59:40.278Z,69.00
2023-01-05T01:02:07.448Z,79.00
2023-01-05T01:04:35.250Z,78.25
2023-01-05T01:07:04.577Z,64.50
2023-01-05T01:09:32.043Z,68.00
2023-01-05T01:11:58.677Z,79.25
2023-01-05T01:14:25.473Z,66.00
2023-01-05T01:16:52.163Z,65.25
2023-01-05T01:19:21.542Z,64.50
2023-01-05T01:21:48.695Z,60.50
2023-01-05T01:24:18.819Z,71.50
2023-01-05T01:26:45.634Z,63.00
2023-01-05T01:29:12.414Z,62.75
2023-01-05T01:31:39.253Z,65.50
2023-01-05T01:34:06.233Z,67.25
2023-01-05T01:36:32.991Z,54.00
2023-01-05T01:39:00.659Z,54.50
2023-01-05T01:41:32.105Z,55.00
2023-01-05T01:43:59.138Z,54.75
2023-01-05T01:46:27.929Z,54.00
2023-01-05T01:49:08.872Z,51.50
2023-01-05T01:51:47.542Z,51.25
2023-01-05T01:54:18.039Z,50.50
2023-01-05T01:56:53.361Z,51.75
2023-01-05T01:59:21.155Z,47.50
2023-01-05T02:01:51.500Z,49.50
2023-01-05T02:04:20.062Z,49.50
2023-01-05T02:06:47.759Z,44.67
2023-01-05T02:09:14.412Z,43.67
2023-01-05T02:12:01.297Z,45.00
2023-01-05T02:14:45.893Z,47.67
2023-01-05T02:17:45.482Z,42.00
2023-01-05T02:20:27.351Z,45.00
2023-01-05T02:23:23.213Z,44.67
2023-01-05T02:26:08.721Z,39.33
2023-01-05T02:28:57.195Z,29.00
2023-01-05T02:31:55.669Z,39.00
2023-01-05T02:34:28.701Z,35.67
2023-01-05T02:37:05.908Z,43.67
2023-01-05T02:39:41.643Z,39.33
2023-01-05T02:42:13.813Z,32.00
2023-01-05T02:44:41.517Z,33.33
2023-01-05T02:47:28.294Z,35.33
2023-01-05T02:50:01.052Z,34.67
2023-01-05T02:52:42.253Z,28.33
2023-01-05T02:55:13.480Z,31.67
2023-01-05T02:57:50.551Z,33.33
2023-01-05T03:00:33.166Z,33.67
2023-01-05T03:03:16.990Z,33.00
2023-01-05T03:05:53.904Z,27.33
2023-01-05T03:08:26.278Z,24.33
2023-01-05T03:11:24.610Z,30.00
2023-01-05T03:14:01.094Z,30.00
2023-01-05T03:16:48.069Z,28.00
2023-01-05T03:19:36.616Z,30.33
2023-01-05T03:22:29.619Z,28.33
2023-01-05T03:25:15.554Z,27.00
2023-01-05T03:28:03.071Z,26.67
2023-01-05T03:30:58.481Z,24.00
2023-01-05T03:34:09.232Z,29.67
2023-01-05T03:37:03.696Z,26.33
2023-01-05T03:39:32.790Z,30.00
2023-01-05T03:42:03.162Z,23.33
2023-01-05T03:44:30.145Z,28.00
2023-01-05T03:46:57.978Z,31.00
2023-01-05T03:49:25.155Z,29.00
2023-01-05T03:51:52.430Z,32.67
2023-01-05T03:54:19.196Z,27.33
2023-01-05T03:56:47.468Z,29.00
2023-01-05T03:59:14.541Z,28.67
2023-01-05T04:01:42.642Z,30.00
2023-01-05T04:04:13.079Z,30.67
2023-01-05T04:06:39.789Z,24.00
2023-01-05T04:09:08.653Z,31.33
2023-01-05T04:11:35.347Z,27.67
2023-01-05T04:14:05.477Z,28.67
2023-01-05T04:16:34.198Z,28.33
2023-01-05T04:19:07.990Z,23.33
2023-01-05T04:21:34.767Z,28.67
2023-01-05T04:24:02.977Z,28.67
2023-01-05T04:26:29.721Z,24.33
2023-01-05T04:28:56.825Z,25.67
2023-01-05T04:31:25.374Z,21.00
2023-01-05T04:33:54.913Z,30.00
2023-01-05T04:36:23.667Z,27.33
2023-01-05T04:38:50.371Z,25.33
2023-01-05T04:41:17.735Z,27.00
2023-01-05T04:43:48.056Z,22.00
2023-01-05T04:46:15.740Z,23.33
2023-01-05T04:48:45.430Z,24.33
2023-01-05T04:51:13.554Z,23.67
2023-01-05T04:53:40.212Z,22.67
2023-01-05T04:56:11.498Z,23.00
2023-01-05T04:58:42.039Z,22.67
2023-01-05T05:01:09.163Z,27.67
2023-01-05T05:03:37.725Z,22.00
2023-01-05T05:06:08.234Z,22.00
2023-01-05T05:08:35.716Z,20.67
2023-01-05T05:11:04.488Z,19.33
2023-01-05T05:13:33.953Z,19.67
2023-01-05T05:16:02.331Z,21.00
2023-01-05T05:18:30.709Z,17.00
2023-01-05T05:20:57.412Z,18.33
2023-01-05T05:23:29.303Z,19.00
2023-01-05T05:25:57.283Z,18.00
2023-01-05T05:28:28.281Z,17.33
2023-01-05T05:30:56.795Z,16.00
2023-01-05T05:33:24.641Z,16.00
2023-01-05T05:35:51.617Z,15.00
2023-01-05T05:38:18.273Z,18.67
2023-01-05T05:40:47.797Z,16.67
2023-01-05T05:43:14.467Z,18.00
2023-01-05T05:45:46.254Z,16.67
2023-01-05T05:48:16.816Z,18.33
2023-01-05T05:50:45.100Z,15.67
2023-01-05T05:53:11.917Z,12.67
2023-01-05T05:55:38.632Z,16.00
2023-01-05T05:58:05.295Z,14.00
2023-01-05T06:00:32.071Z,13.67
2023-01-05T06:02:58.804Z,13.00
2023-01-05T06:05:25.588Z,10.00
2023-01-05T06:07:52.364Z,13.00
2023-01-05T06:10:19.101Z,15.00
2023-01-05T06:12:45.996Z,16.00
2023-01-05T06:15:12.886Z,12.33
2023-01-05T06:17:39.632Z,15.00
2023-01-05T06:20:07.280Z,14.67
2023-01-05T06:22:34.015Z,14.00
2023-01-05T06:25:00.665Z,13.00
2023-01-05T06:27:27.291Z,13.00
2023-01-05T06:29:53.951Z,12.00
2023-01-05T06:32:20.757Z,14.00
2023-01-05T06:34:47.470Z,14.00
2023-01-05T06:37:14.356Z,15.00
2023-01-05T06:39:41.102Z,12.33
2023-01-05T06:42:07.817Z,14.00
2023-01-05T06:44:34.622Z,14.00
2023-01-05T06:47:01.496Z,10.33
2023-01-05T06:49:28.263Z,13.00
2023-01-05T06:51:55.172Z,15.00
2023-01-05T06:54:22.178Z,15.67
2023-01-05T06:56:48.871Z,12.00
2023-01-05T06:59:15.646Z,13.00
2023-01-05T07:01:42.423Z,14.00
2023-01-05T07:04:09.351Z,14.00
2023-01-05T07:06:36.242Z,12.00
2023-01-05T07:09:03.122Z,8.33
2023-01-05T07:11:29.868Z,11.00
2023-01-05T07:13:56.502Z,14.00
2023-01-05T07:16:23.199Z,13.00
2023-01-05T07:18:49.948Z,11.33
2023-01-05T07:21:16.705Z,16.00
2023-01-05T07:23:43.388Z,18.00
2023-01-05T07:26:10.622Z,19.00
2023-01-05T07:28:38.008Z,23.67
2023-01-05T07:31:07.493Z,29.33
2023-01-05T07:33:39.586Z,24.00
2023-01-05T07:36:07.286Z,28.33
2023-01-05T07:38:34.282Z,26.67
2023-01-05T07:41:01.686Z,28.67
2023-01-05T07:43:28.446Z,32.33
2023-01-05T07:46:03.555Z,28.67
2023-01-05T07:48:30.449Z,31.00
2023-01-05T07:51:01.633Z,28.33
2023-01-05T07:53:29.809Z,33.67
2023-01-05T07:56:00.789Z,29.00
2023-01-05T07:58:29.000Z,32.00
2023-01-05T08:00:56.593Z,33.00
2023-01-05T08:03:23.818Z,32.00
2023-01-05T08:05:50.539Z,26.67
2023-01-05T08:08:23.978Z,34.33
2023-01-05T08:10:51.166Z,29.67
2023-01-05T08:13:36.723Z,33.00
2023-01-05T08:16:03.841Z,36.33
2023-01-05T08:18:30.678Z,33.33
2023-01-05T08:21:00.751Z,41.00
2023-01-05T08:23:28.456Z,41.00
2023-01-05T08:25:56.023Z,41.33
2023-01-05T08:28:28.358Z,50.00
2023-01-05T08:31:05.523Z,51.25
2023-01-05T08:33:32.896Z,49.50
2023-01-05T08:36:00.062Z,51.00
2023-01-05T08:38:27.146Z,46.00
2023-01-05T08:40:53.999Z,51.00
2023-01-05T08:43:20.690Z,54.75
2023-01-05T08:45:50.351Z,54.50
2023-01-05T08:48:17.327Z,59.25
2023-01-05T08:50:44.066Z,60.50
2023-01-05T08:53:10.895Z,57.75
2023-01-05T08:55:37.642Z,61.50
2023-01-05T08:58:06.586Z,60.75
2023-01-05T09:00:34.048Z,59.75
2023-01-05T09:03:01.329Z,59.25
2023-01-05T09:05:28.373Z,59.25
2023-01-05T09:07:55.114Z,59.50
2023-01-05T09:10:21.973Z,60.25
2023-01-05T09:12:48.864Z,58.75
2023-01-05T09:15:15.594Z,57.00
2023-01-05T09:17:42.319Z,57.00
2023-01-05T09:20:09.503Z,60.25
2023-01-05T09:22:36.292Z,60.25
2023-01-05T09:25:04.456Z,68.75
2023-01-05T09:27:31.704Z,55.50
2023-01-05T09:29:58.389Z,68.25
2023-01-05T09:32:25.140Z,57.00
2023-01-05T09:34:51.783Z,55.00
2023-01-05T09:37:18.443Z,62.25
2023-01-05T09:39:45.108Z,67.25
2023-01-05T09:42:17.353Z,55.75
2023-01-05T09:44:52.666Z,66.25
2023-01-05T09:47:31.984Z,64.75
2023-01-05T09:50:00.675Z,69.75
2023-01-05T09:52:30.363Z,68.25
2023-01-05T09:54:59.872Z,70.50
2023-01-05T09:57:30.440Z,68.00
2023-01-05T10:00:02.337Z,69.50
2023-01-05T10:02:37.444Z,70.00
2023-01-05T10:05:06.239Z,74.25
2023-01-05T10:07:44.344Z,72.75
2023-01-05T10:11:09.700Z,70.75
2023-01-05T10:13:44.712Z,73.50
2023-01-05T10:16:17.447Z,76.50
2023-01-05T10:18:45.551Z,76.25
2023-01-05T10:21:46.330Z,74.75
2023-01-05T10:24:23.830Z,74.25
2023-01-05T10:27:26.230Z,72.75
2023-01-05T10:30:22.999Z,73.75
2023-01-05T10:33:25.570Z,81.50
2023-01-05T10:39:25.967Z,84.50
2023-01-05T10:41:58.528Z,84.75
2023-01-05T10:44:33.964Z,83.50
2023-01-05T10:47:01.225Z,82.25
2023-01-05T10:49:31.095Z,82.50
2023-01-05T10:52:00.619Z,84.25
2023-01-05T10:54:39.141Z,78.00
2023-01-05T10:57:39.300Z,81.75
2023-01-05T11:00:19.464Z,80.75
2023-01-05T11:02:51.168Z,85.25
2023-01-05T11:05:27.757Z,86.00
2023-01-05T11:08:00.976Z,83.50
2023-01-05T11:10:30.151Z,79.50
2023-01-05T11:13:03.396Z,80.00
2023-01-05T11:15:41.950Z,90.25
2023-01-05T11:18:25.674Z,82.50
2023-01-05T11:21:28.919Z,83.00
2023-01-05T11:23:58.688Z,80.75
2023-01-05T11:26:27.173Z,82.00
2023-01-05T11:29:05.025Z,87.25
2023-01-05T11:31:37.650Z,82.50
2023-01-05T11:34:19.657Z,82.50
2023-01-05T11:37:12.750Z,81.25
2023-01-05T11:39:52.600Z,83.75
2023-01-05T11:42:26.078Z,82.75
2023-01-05T11:45:16.456Z,85.25
2023-01-05T11:48:06.974Z,82.50
2023-01-05T11:50:49.059Z,80.00
2023-01-05T11:53:24.548Z,82.00
2023-01-05T11:56:04.970Z,84.00
2023-01-05T11:58:44.024Z,84.50
2023-01-05T12:01:24.124Z,81.50
2023-01-05T12:04:17.110Z,81.25
2023-01-05T12:06:55.688Z,84.75
2023-01-05T12:09:37.317Z,83.75
2023-01-05T12:12:15.864Z,82.00
2023-01-05T12:14:58.954Z,81.00
2023-01-05T12:17:48.929Z,80.75
2023-01-05T12:20:33.719Z,76.75
2023-01-05T12:23:23.210Z,79.00
2023-01-05T12:26:28.410Z,79.00
2023-01-05T12:30:43.291Z,81.25
2023-01-05T12:35:08.626Z,81.75
2023-01-05T12:37:45.451Z,81.50
2023-01-05T12:40:21.805Z,78.75
2023-01-05T12:43:01.848Z,79.25
2023-01-05T12:45:37.232Z,82.00
2023-01-05T12:48:10.452Z,80.25
2023-01-05T12:50:43.651Z,82.50
2023-01-05T12:53:15.413Z,83.75
2023-01-05T12:55:46.852Z,81.00
2023-01-05T12:58:20.836Z,81.00
2023-01-05T13:00:49.986Z,84.25
2023-01-05T13:03:41.286Z,84.50
2023-01-05T13:06:16.003Z,82.00
2023-01-05T13:08:49.263Z,77.75
2023-01-05T13:11:18.433Z,80.25
2023-01-05T13:13:51.413Z,80.00
2023-01-05T13:16:20.836Z,79.25
2023-01-05T13:18:53.639Z,81.00
2023-01-05T13:21:21.876Z,76.75
2023-01-05T13:23:57.396Z,78.25
2023-01-05T13:26:24.435Z,78.75
2023-01-05T18:34:32.132Z,61.33
2023-01-05T18:45:20.248Z,63.50
2023-01-05T18:47:56.783Z,65.00
2023-01-05T18:50:23.748Z,66.00
2023-01-05T18:52:50.603Z,70.75
2023-01-05T18:55:17.323Z,66.50
2023-01-05T18:57:43.988Z,66.75
2023-01-05T19:00:11.278Z,63.75
2023-01-05T19:02:39.399Z,61.00
2023-01-05T19:05:06.217Z,63.50
2023-01-05T19:07:32.828Z,65.50
2023-01-05T19:09:59.449Z,58.25
2023-01-05T19:12:26.169Z,58.50
2023-01-05T19:28:37.823Z,53.00
2023-01-05T19:31:10.054Z,58.33
2023-01-05T19:33:37.350Z,57.33
2023-01-05T19:36:13.142Z,55.00
2023-01-05T19:38:40.743Z,58.67
2023-01-05T19:41:24.670Z,55.67
2023-01-05T19:43:53.666Z,57.33
2023-01-05T19:46:22.110Z,56.33
2023-01-05T19:48:49.199Z,56.67
2023-01-05T19:51:22.373Z,51.00
2023-01-05T19:54:02.664Z,57.00
2023-01-05T19:56:32.116Z,50.67
2023-01-05T19:59:05.198Z,51.00
2023-01-05T20:01:35.409Z,55.33
2023-01-05T20:04:02.688Z,47.33
2023-01-05T20:06:36.653Z,45.67
2023-01-05T20:09:08.501Z,49.33
2023-01-05T20:11:43.315Z,47.33
2023-01-05T20:14:15.245Z,40.33
2023-01-05T20:16:51.618Z,44.33
2023-01-05T20:19:20.132Z,40.33
2023-01-05T20:21:50.923Z,48.33
2023-01-05T20:24:22.404Z,47.67
2023-01-05T20:26:51.081Z,48.33
2023-01-05T20:29:19.722Z,49.33
2023-01-05T20:31:56.026Z,49.00
2023-01-05T20:34:25.408Z,43.33
2023-01-05T20:40:06.415Z,49.00
2023-01-05T20:42:33.316Z,41.33
2023-01-05T20:45:02.899Z,39.67
2023-01-05T20:47:31.870Z,39.00
2023-01-05T20:50:03.564Z,47.00
2023-01-05T20:52:30.308Z,42.00
2023-01-05T20:56:09.642Z,43.33
2023-01-05T21:02:45.419Z,46.33
2023-01-05T21:05:12.791Z,38.75
2023-01-05T21:07:39.536Z,41.75
2023-01-05T21:10:06.643Z,34.50
2023-01-05T21:12:33.301Z,36.75
2023-01-05T21:15:00.006Z,35.00
2023-01-05T21:17:27.147Z,35.25
2023-01-05T21:19:53.830Z,30.50
2023-01-05T21:22:21.524Z,33.50
2023-01-05T21:24:48.226Z,27.50
2023-01-05T21:27:14.942Z,32.75
2023-01-05T21:29:41.700Z,34.25
2023-01-05T21:32:08.492Z,32.75
2023-01-05T21:34:35.214Z,31.25
2023-01-05T21:37:02.035Z,33.50
2023-01-05T21:39:28.726Z,28.75
2023-01-05T21:42:14.051Z,30.00
2023-01-05T21:44:41.045Z,31.75
2023-01-05T21:47:08.284Z,28.50
2023-01-05T21:49:36.383Z,31.00
2023-01-05T21:52:22.746Z,30.75
2023-01-05T21:55:07.866Z,32.00
2023-01-05T21:57:34.567Z,32.50
2023-01-05T22:07:08.111Z,29.75
2023-01-05T22:09:36.263Z,25.00
2023-01-05T22:12:07.187Z,28.75
2023-01-05T22:14:34.296Z,35.25
2023-01-05T22:19:10.951Z,40.00
2023-01-05T22:21:37.974Z,44.33
2023-01-05T22:24:05.169Z,40.00
2023-01-05T22:26:32.405Z,38.67
2023-01-05T22:28:59.064Z,39.00
2023-01-05T22:31:28.058Z,44.00
2023-01-05T22:33:57.476Z,48.25
2023-01-05T22:36:26.223Z,48.25
2023-01-05T22:38:54.284Z,55.75
2023-01-05T22:41:27.103Z,53.00
2023-01-05T22:43:53.810Z,46.00
2023-01-05T22:46:22.994Z,54.00
2023-01-05T22:48:51.784Z,67.25
2023-01-05T22:51:24.573Z,60.00
2023-01-05T22:53:51.781Z,60.75
2023-01-05T22:56:20.503Z,49.50
2023-01-05T22:58:47.211Z,58.75
2023-01-05T23:01:30.662Z,51.75
2023-01-05T23:03:59.136Z,38.50
2023-01-05T23:06:26.720Z,29.67
2023-01-05T23:08:54.471Z,32.75
2023-01-05T23:11:27.373Z,30.75
2023-01-05T23:13:55.146Z,34.00
2023-01-05T23:16:21.951Z,31.75
2023-01-05T23:18:51.637Z,60.50
2023-01-05T23:21:19.848Z,69.50
2023-01-05T23:23:46.699Z,67.25
2023-01-05T23:26:15.062Z,66.75
2023-01-05T23:28:42.944Z,60.50
2023-01-05T23:31:11.585Z,73.25
2023-01-05T23:33:38.307Z,81.75
2023-01-05T23:36:05.501Z,82.50
2023-01-05T23:38:33.415Z,86.25
2023-01-05T23:41:03.205Z,85.25
2023-01-05T23:43:30.007Z,84.75
2023-01-05T23:46:06.609Z,75.75
2023-01-05T23:48:35.980Z,77.00
2023-01-05T23:51:04.599Z,65.25
2023-01-05T23:53:31.642Z,58.00
2023-01-05T23:56:18.022Z,48.75
2023-01-05T23:58:45.405Z,49.75
